Time;durP1;ratioP1;P1;durP2;ratioP2;P2;SDS_P1;SDS_P2;PMS_P1;PMS_P2;Temp;Humidity;BMP_temperature;BMP_pressure;BME280_temperature;BME280_humidity;BME280_pressure;Samples;Min_cycle;Max_cycle;Signal;HPM_P1;HPM_P2
2021/04/24 00:00:48;;;;;;;1.60;1.50;;;25.70;48.50;;;;;;4993848;28;20483;-83
2021/04/24 00:03:15;;;;;;;1.50;1.40;;;25.70;48.50;;;;;;4994045;28;20444;-83
2021/04/24 00:05:42;;;;;;;1.33;1.23;;;25.70;48.40;;;;;;4993988;28;20933;-83
2021/04/24 00:08:12;;;;;;;1.20;1.10;;;25.70;48.40;;;;;;4993788;28;20510;-83
2021/04/24 00:10:42;;;;;;;1.67;1.53;;;25.70;48.40;;;;;;4993785;28;20448;-83
2021/04/24 00:13:09;;;;;;;1.23;1.10;;;25.70;48.40;;;;;;4993812;28;20449;-83
2021/04/24 00:15:36;;;;;;;1.50;1.40;;;25.60;48.40;;;;;;4993837;28;20468;-83
2021/04/24 00:18:04;;;;;;;1.63;1.23;;;25.60;48.40;;;;;;4993886;28;20942;-83
2021/04/24 00:20:30;;;;;;;1.33;1.23;;;25.60;48.30;;;;;;4993320;28;20444;-84
2021/04/24 00:22:56;;;;;;;1.80;1.20;;;25.60;48.30;;;;;;4993727;28;20447;-83
2021/04/24 00:25:23;;;;;;;1.30;1.20;;;25.60;48.30;;;;;;4993797;28;20535;-83
2021/04/24 00:27:50;;;;;;;1.67;1.57;;;25.60;48.30;;;;;;4993838;28;20487;-83
2021/04/24 00:30:18;;;;;;;1.50;1.40;;;25.60;48.30;;;;;;4993766;28;20440;-84
2021/04/24 00:32:45;;;;;;;1.20;1.10;;;25.60;48.30;;;;;;4993595;28;20462;-83
2021/04/24 00:35:13;;;;;;;1.40;1.23;;;25.60;48.30;;;;;;4993636;28;20494;-84
2021/04/24 00:37:40;;;;;;;1.20;1.10;;;25.60;48.30;;;;;;4993657;28;20938;-83
2021/04/24 00:40:08;;;;;;;1.50;1.20;;;25.60;48.30;;;;;;4993727;28;20442;-83
2021/04/24 00:42:35;;;;;;;1.37;1.27;;;25.60;48.20;;;;;;4993713;28;20444;-83
2021/04/24 00:45:03;;;;;;;1.43;1.27;;;25.60;48.20;;;;;;4993506;28;20513;-83
2021/04/24 00:47:29;;;;;;;1.57;1.43;;;25.60;48.30;;;;;;4993466;28;20509;-83
2021/04/24 00:49:55;;;;;;;1.30;1.13;;;25.60;48.20;;;;;;4993574;28;20802;-83
2021/04/24 00:52:21;;;;;;;1.30;1.20;;;25.50;48.10;;;;;;4993286;28;20448;-83
2021/04/24 00:54:48;;;;;;;1.47;1.37;;;25.50;48.10;;;;;;4993652;28;20962;-83
2021/04/24 00:57:15;;;;;;;1.37;1.27;;;25.50;48.20;;;;;;4993448;28;20458;-83
2021/04/24 00:59:43;;;;;;;1.30;1.20;;;25.50;48.20;;;;;;4993356;28;20448;-83
2021/04/24 01:02:10;;;;;;;1.47;1.37;;;25.50;48.10;;;;;;4993354;28;20444;-84
2021/04/24 01:04:37;;;;;;;1.40;1.20;;;25.50;48.10;;;;;;4993479;28;20436;-83
2021/04/24 01:07:04;;;;;;;1.20;1.03;;;25.50;48.10;;;;;;4993588;28;20828;-83
2021/04/24 01:09:31;;;;;;;1.00;0.90;;;25.50;48.10;;;;;;4993365;28;20869;-83
2021/04/24 01:11:57;;;;;;;1.30;1.20;;;25.50;48.10;;;;;;4993327;28;20447;-83
2021/04/24 01:14:24;;;;;;;1.20;0.97;;;25.50;48.10;;;;;;4993432;28;20473;-83
2021/04/24 01:16:51;;;;;;;2.27;1.40;;;25.50;48.10;;;;;;4993293;28;20463;-83
2021/04/24 01:19:20;;;;;;;1.50;1.17;;;25.50;48.10;;;;;;4993233;28;20439;-83
2021/04/24 01:21:48;;;;;;;1.33;1.23;;;25.50;48.10;;;;;;4993167;28;20791;-83
2021/04/24 01:24:16;;;;;;;1.30;1.20;;;25.40;48.00;;;;;;4993294;28;20446;-83
2021/04/24 01:26:42;;;;;;;1.40;1.30;;;25.50;48.10;;;;;;4993164;28;20478;-83
2021/04/24 01:29:09;;;;;;;1.50;1.40;;;25.50;48.20;;;;;;4993242;28;20475;-83
2021/04/24 01:31:36;;;;;;;1.23;1.00;;;25.50;48.20;;;;;;4993572;28;20450;-83
2021/04/24 01:34:04;;;;;;;1.30;1.20;;;25.50;48.10;;;;;;4996684;28;20455;-83
2021/04/24 01:36:31;;;;;;;1.10;1.00;;;25.50;48.20;;;;;;4996489;28;20977;-83
2021/04/24 01:38:57;;;;;;;1.40;1.07;;;25.40;48.10;;;;;;4996490;28;20453;-83
2021/04/24 01:41:25;;;;;;;1.10;1.00;;;25.40;48.20;;;;;;4996491;28;20440;-83
2021/04/24 01:43:52;;;;;;;1.30;1.20;;;25.40;48.20;;;;;;4996551;28;20457;-83
2021/04/24 01:46:19;;;;;;;1.30;1.10;;;25.40;48.20;;;;;;4996334;28;20460;-83
2021/04/24 01:48:46;;;;;;;1.10;1.00;;;25.40;48.20;;;;;;4996224;28;20557;-83
2021/04/24 01:51:12;;;;;;;1.20;1.10;;;25.40;48.30;;;;;;4996097;28;20506;-83
2021/04/24 01:53:39;;;;;;;1.17;1.00;;;25.40;48.20;;;;;;4996310;28;20451;-83
2021/04/24 01:56:07;;;;;;;1.30;1.20;;;25.40;48.30;;;;;;4996321;28;20455;-83
2021/04/24 01:58:34;;;;;;;1.10;1.00;;;25.40;48.30;;;;;;4996214;28;20446;-83
2021/04/24 02:01:05;;;;;;;1.33;1.23;;;25.40;48.30;;;;;;4995959;28;20472;-83
2021/04/24 02:03:31;;;;;;;1.30;1.20;;;25.40;48.30;;;;;;4996083;28;20437;-82
2021/04/24 02:05:58;;;;;;;1.90;1.20;;;25.40;48.30;;;;;;4996076;28;20439;-82
2021/04/24 02:08:26;;;;;;;1.40;1.30;;;25.40;48.30;;;;;;4995984;28;20842;-83
2021/04/24 02:10:55;;;;;;;1.10;1.00;;;25.40;48.30;;;;;;4995864;28;20450;-83
2021/04/24 02:13:22;;;;;;;1.20;1.10;;;25.40;48.40;;;;;;4995889;28;20452;-83
2021/04/24 02:15:50;;;;;;;1.37;1.27;;;25.40;48.30;;;;;;4995910;28;20463;-83
2021/04/24 02:18:16;;;;;;;1.27;1.17;;;25.40;48.40;;;;;;4995875;28;20448;-83
2021/04/24 02:20:43;;;;;;;1.20;1.00;;;25.40;48.30;;;;;;4995771;28;20996;-83
2021/04/24 02:23:11;;;;;;;1.30;1.20;;;25.40;48.30;;;;;;4995869;28;20961;-83
2021/04/24 02:25:38;;;;;;;1.40;1.10;;;25.40;48.40;;;;;;4995733;28;20436;-83
2021/04/24 02:28:05;;;;;;;2.17;1.07;;;25.40;48.30;;;;;;4995566;28;20562;-84
2021/04/24 02:30:32;;;;;;;1.17;1.07;;;25.40;48.30;;;;;;4995542;28;20824;-83
2021/04/24 02:32:59;;;;;;;1.50;1.40;;;25.40;48.30;;;;;;4995539;28;20462;-83
2021/04/24 02:35:32;;;;;;;1.30;1.20;;;25.40;48.30;;;;;;4995550;28;20455;-83
2021/04/24 02:37:59;;;;;;;1.30;1.20;;;25.40;48.30;;;;;;4995414;28;20447;-83
2021/04/24 02:40:25;;;;;;;1.30;1.20;;;25.40;48.40;;;;;;4995428;28;20455;-83
2021/04/24 02:42:51;;;;;;;1.30;1.20;;;25.40;48.40;;;;;;4995108;28;20943;-83
2021/04/24 02:45:19;;;;;;;1.33;1.23;;;25.40;48.40;;;;;;4995338;28;20541;-83
2021/04/24 02:47:46;;;;;;;1.97;1.27;;;25.40;49.00;;;;;;4995300;28;20851;-83
2021/04/24 02:50:19;;;;;;;1.30;1.00;;;25.40;48.30;;;;;;4995172;28;20445;-83
2021/04/24 02:52:46;;;;;;;1.27;1.13;;;25.40;48.30;;;;;;4995195;28;20454;-83
2021/04/24 02:55:14;;;;;;;1.60;1.30;;;25.40;48.30;;;;;;4995180;28;20444;-83
2021/04/24 02:57:41;;;;;;;1.70;1.33;;;25.40;48.40;;;;;;4995134;28;20442;-83
2021/04/24 03:00:10;;;;;;;2.07;1.37;;;25.40;48.40;;;;;;4994868;28;20472;-83
2021/04/24 03:02:37;;;;;;;1.53;1.27;;;25.40;48.40;;;;;;4994934;28;20455;-83
2021/04/24 03:05:08;;;;;;;1.20;1.07;;;25.40;48.40;;;;;;4994932;28;20484;-83
2021/04/24 03:07:36;;;;;;;1.20;1.00;;;25.40;48.30;;;;;;4994843;28;20483;-83
2021/04/24 03:10:03;;;;;;;1.10;0.90;;;25.40;48.30;;;;;;4994785;28;20448;-82
2021/04/24 03:12:29;;;;;;;1.40;1.30;;;25.40;48.40;;;;;;4994625;28;20450;-83
2021/04/24 03:14:55;;;;;;;1.40;1.30;;;25.40;48.30;;;;;;4994629;28;20970;-83
2021/04/24 03:17:21;;;;;;;1.30;1.20;;;25.40;48.30;;;;;;4994702;28;20452;-82
2021/04/24 03:19:48;;;;;;;1.27;1.17;;;25.40;48.30;;;;;;4994627;28;20446;-82
2021/04/24 03:22:14;;;;;;;1.43;1.03;;;25.40;48.40;;;;;;4994604;28;20504;-83
2021/04/24 03:24:41;;;;;;;1.20;1.10;;;25.30;48.30;;;;;;4994645;28;20450;-83
2021/04/24 03:27:07;;;;;;;1.47;1.37;;;25.40;48.40;;;;;;4994403;28;20491;-82
2021/04/24 03:29:33;;;;;;;1.47;1.37;;;25.30;48.30;;;;;;4994389;28;20454;-83
2021/04/24 03:32:00;;;;;;;1.30;1.10;;;25.40;48.40;;;;;;4994426;28;20776;-84
2021/04/24 03:34:26;;;;;;;1.40;1.30;;;25.40;48.40;;;;;;4994581;28;20458;-83
2021/04/24 03:36:52;;;;;;;1.50;1.40;;;25.30;48.40;;;;;;4994341;28;20800;-83
2021/04/24 03:39:19;;;;;;;1.60;1.50;;;25.30;48.40;;;;;;4994301;28;20456;-83
2021/04/24 03:41:46;;;;;;;1.40;1.30;;;25.30;48.30;;;;;;4994335;28;20799;-83
2021/04/24 03:44:12;;;;;;;1.53;1.43;;;25.30;48.30;;;;;;4994367;28;20773;-83
2021/04/24 03:46:38;;;;;;;1.20;1.10;;;25.30;48.30;;;;;;4994153;28;20562;-83
2021/04/24 03:49:05;;;;;;;1.27;1.17;;;25.30;48.40;;;;;;4994184;28;20448;-83
2021/04/24 03:51:31;;;;;;;1.43;1.20;;;25.30;48.40;;;;;;4994038;28;20458;-84
2021/04/24 03:53:57;;;;;;;1.50;1.20;;;25.30;48.30;;;;;;4993730;28;20444;-84
2021/04/24 03:56:24;;;;;;;1.37;1.27;;;25.30;48.30;;;;;;4993967;28;20443;-83
2021/04/24 03:58:51;;;;;;;2.70;1.10;;;25.30;48.30;;;;;;4994040;28;20459;-83
2021/04/24 04:01:17;;;;;;;1.10;0.83;;;25.30;48.30;;;;;;4993767;28;20479;-83
2021/04/24 04:03:43;;;;;;;1.43;1.27;;;25.30;48.40;;;;;;4994045;28;20478;-83
2021/04/24 04:06:10;;;;;;;1.53;1.40;;;25.30;48.30;;;;;;4993953;28;20448;-84
2021/04/24 04:08:36;;;;;;;1.60;1.50;;;25.30;48.40;;;;;;4993802;28;20491;-83
2021/04/24 04:11:02;;;;;;;1.10;1.00;;;25.30;48.30;;;;;;4993716;28;20501;-84
2021/04/24 04:13:29;;;;;;;1.30;1.20;;;25.30;48.30;;;;;;4993974;28;20454;-83
2021/04/24 04:15:56;;;;;;;1.47;1.10;;;25.30;48.30;;;;;;4993774;28;20472;-84
2021/04/24 04:18:22;;;;;;;1.53;1.23;;;25.30;48.30;;;;;;4993882;28;20435;-83
2021/04/24 04:20:51;;;;;;;1.30;1.20;;;25.30;48.30;;;;;;4993771;28;20456;-83
2021/04/24 04:23:17;;;;;;;1.30;1.10;;;25.30;48.30;;;;;;4993780;28;20534;-83
2021/04/24 04:25:45;;;;;;;1.20;1.10;;;25.30;48.90;;;;;;4993824;28;20501;-83
2021/04/24 04:28:13;;;;;;;1.63;1.23;;;25.30;48.20;;;;;;4993761;28;20581;-83
2021/04/24 04:30:40;;;;;;;1.40;1.30;;;25.30;48.30;;;;;;4993651;28;20810;-83
2021/04/24 04:33:09;;;;;;;1.17;1.07;;;25.30;48.30;;;;;;4993608;28;20440;-83
2021/04/24 04:35:36;;;;;;;1.30;1.20;;;25.30;48.30;;;;;;4993668;28;20447;-83
2021/04/24 04:38:03;;;;;;;1.30;1.20;;;25.30;48.30;;;;;;4993651;28;20454;-84
2021/04/24 04:40:29;;;;;;;1.30;1.20;;;25.30;48.40;;;;;;4993640;28;20444;-83
2021/04/24 04:42:56;;;;;;;1.50;1.40;;;25.30;48.40;;;;;;4993538;28;20436;-83
2021/04/24 04:45:23;;;;;;;1.30;1.20;;;25.30;48.40;;;;;;4993586;28;20463;-83
2021/04/24 04:47:50;;;;;;;1.67;1.57;;;25.30;48.30;;;;;;4993633;28;20893;-83
2021/04/24 04:50:19;;;;;;;1.73;1.37;;;25.30;48.30;;;;;;4993499;28;20449;-83
2021/04/24 04:52:45;;;;;;;1.57;1.47;;;25.30;48.40;;;;;;4993594;28;20451;-84
2021/04/24 04:55:13;;;;;;;1.30;1.20;;;25.30;48.40;;;;;;4993495;28;20470;-84
2021/04/24 04:57:39;;;;;;;1.40;1.10;;;25.30;48.40;;;;;;4993535;28;20450;-83
2021/04/24 05:00:07;;;;;;;1.37;1.27;;;25.30;48.50;;;;;;4993287;28;20464;-83
2021/04/24 05:02:34;;;;;;;1.53;1.33;;;25.30;48.40;;;;;;4993390;28;20534;-84
2021/04/24 05:05:00;;;;;;;1.30;1.20;;;25.30;48.50;;;;;;4994622;28;20443;-85
2021/04/24 05:07:27;;;;;;;1.30;1.20;;;25.20;48.50;;;;;;4996938;28;20833;-84
2021/04/24 05:09:54;;;;;;;1.67;1.57;;;25.20;48.40;;;;;;4997099;28;20450;-84
2021/04/24 05:12:21;;;;;;;1.40;1.30;;;25.30;48.20;;;;;;4996937;28;20949;-84
2021/04/24 05:14:47;;;;;;;1.20;1.10;;;25.30;48.00;;;;;;4997022;28;20833;-84
2021/04/24 05:17:13;;;;;;;1.70;1.60;;;25.20;47.90;;;;;;4996987;28;20518;-84
2021/04/24 05:19:39;;;;;;;1.40;1.30;;;25.20;47.90;;;;;;4996874;28;20447;-84
2021/04/24 05:22:06;;;;;;;1.30;1.20;;;25.20;47.90;;;;;;4996908;28;20807;-84
2021/04/24 05:24:33;;;;;;;2.17;1.73;;;25.20;48.00;;;;;;4996902;28;20503;-84
2021/04/24 05:27:00;;;;;;;1.47;1.37;;;25.20;48.00;;;;;;4996782;28;20444;-84
2021/04/24 05:29:26;;;;;;;1.70;1.37;;;25.20;48.00;;;;;;4996780;28;20795;-84
2021/04/24 05:31:52;;;;;;;2.50;1.30;;;25.20;48.00;;;;;;4996603;28;20440;-84
2021/04/24 05:34:19;;;;;;;2.90;1.70;;;25.20;48.00;;;;;;4996684;28;20443;-84
2021/04/24 05:36:45;;;;;;;4.60;1.53;;;25.10;47.60;;;;;;4996543;28;20443;-84
2021/04/24 05:39:12;;;;;;;1.90;1.80;;;25.10;47.90;;;;;;4996567;28;20949;-83
2021/04/24 05:41:39;;;;;;;1.40;1.30;;;25.10;48.30;;;;;;4996500;28;20447;-83
2021/04/24 05:44:06;;;;;;;1.40;1.30;;;25.10;48.30;;;;;;4996560;28;20547;-83
2021/04/24 05:46:33;;;;;;;1.40;1.30;;;25.10;48.30;;;;;;4996477;28;20474;-83
2021/04/24 05:48:59;;;;;;;1.50;1.40;;;25.30;48.50;;;;;;4996281;28;20548;-83
2021/04/24 05:51:25;;;;;;;1.33;1.20;;;25.20;48.40;;;;;;4996160;28;20465;-83
2021/04/24 05:53:53;;;;;;;1.60;1.40;;;25.20;48.50;;;;;;4996395;28;20538;-83
2021/04/24 05:56:20;;;;;;;1.50;1.40;;;25.20;48.50;;;;;;4996299;28;20440;-83
2021/04/24 05:58:48;;;;;;;1.80;1.70;;;25.20;48.50;;;;;;4996321;28;20456;-83
2021/04/24 06:01:15;;;;;;;1.50;1.40;;;25.20;48.50;;;;;;4996010;28;20476;-86
2021/04/24 06:03:42;;;;;;;1.70;1.60;;;25.20;48.50;;;;;;4996146;28;20448;-84
2021/04/24 06:06:09;;;;;;;2.33;2.13;;;25.30;48.90;;;;;;4996069;28;20993;-85
2021/04/24 06:08:35;;;;;;;3.03;1.63;;;25.30;48.90;;;;;;4996252;28;21029;-85
2021/04/24 06:11:01;;;;;;;2.03;1.83;;;25.30;48.70;;;;;;4996311;28;20550;-86
2021/04/24 06:13:28;;;;;;;2.70;1.93;;;25.30;48.50;;;;;;4996163;28;20880;-85
2021/04/24 06:15:56;;;;;;;1.57;1.47;;;25.30;48.50;;;;;;4996267;28;20904;-85
2021/04/24 06:18:23;;;;;;;1.70;1.60;;;25.30;48.50;;;;;;4995732;28;20501;-85
2021/04/24 06:20:49;;;;;;;1.90;1.60;;;25.30;48.70;;;;;;4996206;28;20445;-85
2021/04/24 06:23:16;;;;;;;4.03;1.83;;;25.30;49.30;;;;;;4996240;28;20806;-84
2021/04/24 06:25:43;;;;;;;2.57;1.70;;;25.40;49.00;;;;;;4996018;28;20809;-84
2021/04/24 06:28:09;;;;;;;1.93;1.70;;;25.40;49.30;;;;;;4996048;28;20820;-85
2021/04/24 06:30:36;;;;;;;3.27;2.37;;;25.40;49.50;;;;;;4995825;28;20447;-85
2021/04/24 06:33:06;;;;;;;2.03;1.90;;;25.40;49.60;;;;;;4996072;28;20807;-85
2021/04/24 06:35:32;;;;;;;2.20;1.63;;;25.40;49.70;;;;;;4995870;28;20443;-86
2021/04/24 06:37:58;;;;;;;1.60;1.50;;;25.40;49.90;;;;;;4995663;28;20966;-85
2021/04/24 06:40:27;;;;;;;1.90;1.80;;;25.40;49.90;;;;;;4995874;28;20452;-85
2021/04/24 06:42:53;;;;;;;2.07;1.87;;;25.40;49.80;;;;;;4995768;28;20447;-85
2021/04/24 06:45:20;;;;;;;2.40;1.53;;;25.40;49.80;;;;;;4995431;28;20561;-85
2021/04/24 06:47:48;;;;;;;1.70;1.60;;;25.50;50.00;;;;;;4995725;28;20893;-85
2021/04/24 06:50:15;;;;;;;1.87;1.77;;;25.50;50.00;;;;;;4995467;28;20486;-85
2021/04/24 06:52:42;;;;;;;2.27;2.07;;;25.50;50.00;;;;;;4995512;28;20450;-85
2021/04/24 06:55:11;;;;;;;3.10;1.90;;;25.50;49.80;;;;;;4995499;28;20992;-87
2021/04/24 06:57:37;;;;;;;1.80;1.67;;;25.40;49.30;;;;;;5005015;28;20538;-89
2021/04/24 07:00:05;;;;;;;2.33;2.00;;;25.40;49.20;;;;;;4997459;28;20507;-87
2021/04/24 07:02:32;;;;;;;2.50;1.77;;;25.40;49.20;;;;;;4995347;28;20443;-86
2021/04/24 07:04:58;;;;;;;1.70;1.60;;;25.40;49.10;;;;;;4995606;28;20939;-87
2021/04/24 07:07:25;;;;;;;2.80;1.93;;;25.40;49.20;;;;;;4995150;28;20583;-84
2021/04/24 07:09:51;;;;;;;5.33;3.93;;;25.40;49.10;;;;;;4994964;28;20528;-84
2021/04/24 07:12:18;;;;;;;5.50;3.77;;;25.40;47.70;;;;;;4995111;28;20537;-84
2021/04/24 07:14:44;;;;;;;5.10;3.70;;;25.40;46.30;;;;;;4995255;28;20547;-93
2021/04/24 07:17:10;;;;;;;6.50;3.50;;;25.10;45.90;;;;;;4993732;28;20454;-84
2021/04/24 07:19:37;;;;;;;3.23;2.60;;;24.80;46.00;;;;;;4989977;28;20451;-83
2021/04/24 07:22:04;;;;;;;2.90;2.60;;;24.70;46.90;;;;;;4994479;28;20466;-84
2021/04/24 07:24:31;;;;;;;2.70;1.90;;;24.70;47.60;;;;;;4994648;28;20451;-84
2021/04/24 07:26:57;;;;;;;2.20;2.00;;;24.80;48.30;;;;;;4994484;28;20465;-85
2021/04/24 07:29:23;;;;;;;2.90;2.00;;;24.80;48.60;;;;;;4993494;28;20495;-84
2021/04/24 07:31:50;;;;;;;1.90;1.70;;;24.90;48.80;;;;;;4994421;28;20447;-85
2021/04/24 07:34:16;;;;;;;2.27;1.97;;;25.00;49.00;;;;;;4994351;28;20462;-84
2021/04/24 07:36:42;;;;;;;3.20;1.70;;;25.00;48.80;;;;;;4994413;28;20454;-86
2021/04/24 07:39:08;;;;;;;2.97;1.80;;;25.10;49.00;;;;;;4994333;28;20852;-84
2021/04/24 07:41:36;;;;;;;2.20;1.83;;;25.10;49.00;;;;;;4995904;28;20452;-91
2021/04/24 07:44:02;;;;;;;4.00;1.83;;;25.20;49.20;;;;;;4994993;28;20455;-87
2021/04/24 07:46:28;;;;;;;2.50;2.13;;;25.20;49.10;;;;;;4994572;28;20471;-84
2021/04/24 07:48:55;;;;;;;3.20;1.90;;;25.30;49.20;;;;;;4993311;28;20491;-84
2021/04/24 07:51:21;;;;;;;2.07;1.40;;;25.30;49.30;;;;;;4991945;28;20522;-84
2021/04/24 07:53:48;;;;;;;4.47;1.57;;;25.40;49.50;;;;;;4993699;28;20452;-84
2021/04/24 07:56:15;;;;;;;3.17;1.80;;;25.50;49.60;;;;;;4993663;28;20445;-84
2021/04/24 07:58:42;;;;;;;1.70;1.60;;;25.50;49.60;;;;;;4994059;28;20502;-84
2021/04/24 08:01:09;;;;;;;4.13;1.90;;;25.50;49.50;;;;;;4993856;28;20483;-84
2021/04/24 08:03:35;;;;;;;2.40;1.83;;;25.60;49.60;;;;;;4993973;28;20994;-84
2021/04/24 08:06:01;;;;;;;4.03;1.77;;;25.70;49.60;;;;;;4994013;28;20486;-84
2021/04/24 08:08:28;;;;;;;3.47;2.03;;;25.70;49.50;;;;;;4993822;28;20491;-84
2021/04/24 08:10:54;;;;;;;3.13;1.70;;;25.80;49.50;;;;;;4993812;28;20461;-84
2021/04/24 08:13:20;;;;;;;1.67;1.57;;;25.80;49.50;;;;;;4993911;28;20450;-84
2021/04/24 08:15:49;;;;;;;4.50;1.47;;;25.80;49.50;;;;;;4993752;28;21008;-84
2021/04/24 08:18:15;;;;;;;2.23;1.87;;;25.90;49.60;;;;;;4993910;28;20531;-85
2021/04/24 08:20:41;;;;;;;1.80;1.53;;;25.90;49.50;;;;;;4993834;28;20448;-84
2021/04/24 08:23:08;;;;;;;2.27;1.70;;;25.90;49.50;;;;;;4993898;28;20436;-84
2021/04/24 08:25:34;;;;;;;1.87;1.50;;;25.90;49.60;;;;;;4993764;28;20923;-84
2021/04/24 08:28:00;;;;;;;1.70;1.40;;;25.90;49.70;;;;;;4993697;28;20495;-83
2021/04/24 08:30:27;;;;;;;1.70;1.50;;;26.00;49.60;;;;;;4993668;28;20877;-84
2021/04/24 08:32:54;;;;;;;2.37;1.60;;;25.90;49.60;;;;;;4993790;28;20440;-84
2021/04/24 08:35:21;;;;;;;1.50;1.37;;;26.00;49.70;;;;;;4993753;28;20436;-84
2021/04/24 08:37:47;;;;;;;1.70;1.50;;;26.00;49.70;;;;;;4993652;28;20500;-84
2021/04/24 08:40:15;;;;;;;1.73;1.60;;;26.00;49.70;;;;;;4993961;28;20449;-84
2021/04/24 08:42:43;;;;;;;1.40;1.30;;;26.00;49.70;;;;;;4997687;28;20436;-84
2021/04/24 08:45:15;;;;;;;2.70;1.50;;;26.00;49.70;;;;;;4997593;28;20812;-84
2021/04/24 08:47:44;;;;;;;1.37;1.20;;;26.00;49.70;;;;;;4997678;28;20906;-84
2021/04/24 08:50:14;;;;;;;1.60;1.47;;;26.00;49.80;;;;;;4997396;28;20440;-84
2021/04/24 08:52:40;;;;;;;2.13;1.33;;;26.00;49.80;;;;;;4997503;28;20444;-85
2021/04/24 08:55:08;;;;;;;2.80;1.60;;;26.10;49.80;;;;;;4997350;28;20932;-84
2021/04/24 08:57:37;;;;;;;1.80;1.43;;;26.00;49.80;;;;;;4997343;28;20448;-85
2021/04/24 09:00:05;;;;;;;5.93;2.03;;;26.10;49.80;;;;;;4997232;28;20484;-84
2021/04/24 09:02:32;;;;;;;3.00;1.50;;;26.10;49.80;;;;;;4997286;28;20447;-84
2021/04/24 09:04:58;;;;;;;1.73;1.17;;;26.20;49.90;;;;;;4997364;28;20441;-84
2021/04/24 09:07:26;;;;;;;1.93;1.20;;;26.20;49.80;;;;;;4997178;28;20431;-84
2021/04/24 09:09:57;;;;;;;1.90;1.40;;;26.30;49.80;;;;;;4997025;28;20457;-84
2021/04/24 09:12:35;;;;;;;1.40;1.30;;;26.30;49.80;;;;;;4997193;28;20445;-84
2021/04/24 09:15:10;;;;;;;2.60;1.40;;;26.40;49.80;;;;;;4997016;28;20477;-84
2021/04/24 09:17:54;;;;;;;1.20;1.10;;;26.50;49.70;;;;;;4996997;28;20481;-84
2021/04/24 09:20:22;;;;;;;1.93;1.30;;;26.60;49.70;;;;;;4996901;28;20450;-84
2021/04/24 09:23:02;;;;;;;1.40;1.27;;;26.60;49.60;;;;;;4996789;28;20449;-84
2021/04/24 09:25:30;;;;;;;1.80;1.23;;;26.70;49.60;;;;;;4996902;28;20449;-84
2021/04/24 09:27:56;;;;;;;1.27;1.17;;;26.70;49.50;;;;;;4996784;28;20511;-84
2021/04/24 09:30:30;;;;;;;2.67;1.40;;;26.80;49.50;;;;;;4996667;28;20449;-85
2021/04/24 09:33:02;;;;;;;3.50;1.20;;;26.80;49.50;;;;;;4996807;28;21007;-84
2021/04/24 09:35:42;;;;;;;1.93;1.70;;;26.90;49.50;;;;;;4996752;28;20440;-84
2021/04/24 09:38:15;;;;;;;1.23;1.13;;;27.00;49.50;;;;;;4996663;28;20449;-85
2021/04/24 09:40:41;;;;;;;1.70;1.30;;;27.00;49.50;;;;;;4996569;28;20447;-84
2021/04/24 09:43:08;;;;;;;1.60;1.20;;;27.10;49.50;;;;;;4996556;28;20442;-84
2021/04/24 09:45:39;;;;;;;1.43;1.20;;;27.10;49.40;;;;;;4996444;28;20509;-84
2021/04/24 09:48:18;;;;;;;1.20;1.10;;;27.10;49.40;;;;;;4996387;28;20521;-84
2021/04/24 09:50:44;;;;;;;1.37;1.20;;;27.20;49.40;;;;;;4996411;28;20455;-84
2021/04/24 09:53:17;;;;;;;3.83;1.27;;;27.20;49.40;;;;;;4995216;28;20802;-85
2021/04/24 09:55:44;;;;;;;2.40;1.33;;;27.30;49.40;;;;;;4996401;28;20918;-85
2021/04/24 09:58:25;;;;;;;2.50;1.00;;;27.30;49.40;;;;;;4996287;28;20441;-84
2021/04/24 10:00:52;;;;;;;1.50;1.20;;;27.30;49.30;;;;;;4996028;28;20473;-84
2021/04/24 10:03:38;;;;;;;1.30;1.20;;;27.30;49.40;;;;;;4996172;28;20448;-84
2021/04/24 10:06:24;;;;;;;1.40;1.00;;;27.30;49.40;;;;;;4994202;28;21003;-84
2021/04/24 10:08:52;;;;;;;1.20;1.10;;;27.40;49.50;;;;;;4995948;28;20499;-84
2021/04/24 10:11:28;;;;;;;2.03;1.00;;;27.40;49.50;;;;;;4995873;28;20451;-84
2021/04/24 10:13:55;;;;;;;1.20;1.10;;;27.40;49.40;;;;;;4996002;28;20442;-85
2021/04/24 10:16:38;;;;;;;1.40;0.97;;;27.40;49.40;;;;;;4995854;28;20462;-85
2021/04/24 10:19:06;;;;;;;1.10;1.00;;;27.50;49.40;;;;;;4995904;28;20449;-84
2021/04/24 10:21:33;;;;;;;1.30;1.20;;;27.50;49.40;;;;;;4995957;28;20955;-84
2021/04/24 10:24:01;;;;;;;1.27;1.13;;;27.50;49.40;;;;;;4995829;28;20452;-84
2021/04/24 10:26:29;;;;;;;1.40;1.30;;;27.50;49.40;;;;;;4995706;28;20941;-84
2021/04/24 10:28:56;;;;;;;1.20;1.10;;;27.50;49.30;;;;;;4995605;28;20515;-84
2021/04/24 10:31:23;;;;;;;1.83;1.40;;;27.50;49.40;;;;;;4995477;28;21010;-84
2021/04/24 10:33:50;;;;;;;2.40;1.10;;;27.60;49.40;;;;;;4995527;28;20933;-84
2021/04/24 10:36:16;;;;;;;1.00;0.90;;;27.60;49.30;;;;;;4995698;28;20530;-84
2021/04/24 10:38:45;;;;;;;1.10;1.00;;;27.60;49.40;;;;;;4995573;28;21016;-84
2021/04/24 10:41:13;;;;;;;1.10;1.00;;;27.60;49.40;;;;;;4995359;28;20840;-84
2021/04/24 10:43:40;;;;;;;1.93;1.50;;;27.70;49.40;;;;;;4995498;28;20455;-84
2021/04/24 10:46:30;;;;;;;1.63;0.97;;;27.70;49.40;;;;;;4995226;28;20470;-84
2021/04/24 10:49:17;;;;;;;1.20;1.00;;;27.70;49.40;;;;;;4995241;28;20551;-84
2021/04/24 10:52:07;;;;;;;1.10;0.93;;;27.70;49.40;;;;;;4995221;28;20447;-84
2021/04/24 10:54:36;;;;;;;1.30;0.90;;;27.70;49.50;;;;;;4995280;28;20465;-84
2021/04/24 10:57:43;;;;;;;1.10;1.00;;;27.70;49.50;;;;;;4995269;28;20530;-84
2021/04/24 11:00:11;;;;;;;1.40;1.20;;;27.70;49.50;;;;;;4994875;28;20488;-85
2021/04/24 11:02:43;;;;;;;1.63;1.10;;;27.70;49.50;;;;;;4995421;28;20439;-84
2021/04/24 11:05:26;;;;;;;1.77;1.00;;;27.70;49.50;;;;;;4994786;28;21015;-84
2021/04/24 11:08:25;;;;;;;1.50;0.93;;;27.70;49.50;;;;;;4994984;28;20875;-84
2021/04/24 11:10:58;;;;;;;1.30;1.10;;;27.70;49.50;;;;;;4994807;28;20485;-84
2021/04/24 11:13:27;;;;;;;2.20;1.10;;;27.70;50.10;;;;;;4994890;28;20466;-84
2021/04/24 11:15:55;;;;;;;1.10;1.00;;;27.80;49.60;;;;;;4994744;28;20459;-84
2021/04/24 11:18:22;;;;;;;1.20;0.87;;;27.80;49.60;;;;;;4994652;28;20451;-84
2021/04/24 11:20:51;;;;;;;1.00;0.90;;;27.80;49.60;;;;;;4994663;28;20448;-84
2021/04/24 11:23:48;;;;;;;1.20;1.00;;;27.80;49.60;;;;;;4994764;28;20450;-84
2021/04/24 11:26:20;;;;;;;1.20;1.10;;;27.80;49.60;;;;;;4951035;28;20455;-84
2021/04/24 11:29:07;;;;;;;1.37;1.20;;;27.80;49.70;;;;;;4994598;28;20549;-84
2021/04/24 11:32:10;;;;;;;1.40;1.00;;;27.80;49.60;;;;;;4994457;28;20526;-84
2021/04/24 11:34:43;;;;;;;1.40;1.00;;;27.80;49.60;;;;;;4994278;28;20791;-84
2021/04/24 11:37:40;;;;;;;1.20;1.10;;;27.80;49.70;;;;;;4993403;28;20479;-84
2021/04/24 11:40:29;;;;;;;1.27;1.10;;;27.80;49.70;;;;;;4994423;28;20447;-83
2021/04/24 11:43:05;;;;;;;1.13;1.03;;;27.80;49.60;;;;;;4994293;28;20455;-83
2021/04/24 11:46:05;;;;;;;1.40;1.10;;;27.80;50.20;;;;;;4994396;28;20858;-83
2021/04/24 11:49:00;;;;;;;1.30;1.20;;;27.90;49.60;;;;;;4994267;28;20549;-85
2021/04/24 11:51:54;;;;;;;1.20;1.00;;;27.90;49.70;;;;;;4991961;28;20513;-83
2021/04/24 11:54:29;;;;;;;1.30;1.10;;;27.80;49.70;;;;;;4994200;28;20466;-83
2021/04/24 11:56:58;;;;;;;1.30;1.10;;;27.80;49.70;;;;;;4994144;28;20545;-83
2021/04/24 11:59:26;;;;;;;1.50;1.20;;;27.80;49.70;;;;;;4994063;28;20462;-83
2021/04/24 12:01:59;;;;;;;1.43;0.80;;;27.80;49.80;;;;;;4993759;28;20578;-83
2021/04/24 12:04:27;;;;;;;1.20;1.10;;;27.80;49.80;;;;;;4993991;28;20510;-83
2021/04/24 12:07:02;;;;;;;1.37;1.00;;;27.70;49.70;;;;;;4994049;28;21024;-83
2021/04/24 12:09:29;;;;;;;1.20;1.10;;;27.80;49.90;;;;;;4993954;28;20494;-83
2021/04/24 12:11:57;;;;;;;1.10;0.90;;;27.70;49.80;;;;;;4993843;28;20805;-82
2021/04/24 12:14:26;;;;;;;1.43;1.27;;;27.70;49.90;;;;;;4993914;28;20938;-83
2021/04/24 12:16:54;;;;;;;1.10;1.00;;;27.70;49.90;;;;;;4993371;28;20494;-83
2021/04/24 12:19:29;;;;;;;1.10;0.90;;;27.70;49.90;;;;;;4993942;28;20934;-83
2021/04/24 12:22:10;;;;;;;2.30;1.00;;;27.70;50.00;;;;;;4993845;28;20449;-83
2021/04/24 12:24:49;;;;;;;1.03;0.90;;;27.60;49.90;;;;;;4993863;28;20505;-82
2021/04/24 12:27:25;;;;;;;2.17;0.97;;;27.60;50.00;;;;;;4993729;28;20456;-83
2021/04/24 12:29:52;;;;;;;1.00;0.83;;;27.70;50.00;;;;;;4993587;28;20530;-83
2021/04/24 12:32:22;;;;;;;1.10;1.00;;;27.60;49.90;;;;;;4993734;28;20452;-83
2021/04/24 12:34:48;;;;;;;1.10;0.90;;;27.60;49.90;;;;;;4993677;28;20470;-83
2021/04/24 12:37:19;;;;;;;1.10;0.90;;;27.60;49.90;;;;;;4993639;28;20470;-83
2021/04/24 12:39:46;;;;;;;1.20;0.90;;;27.70;49.90;;;;;;4993588;28;20465;-83
2021/04/24 12:42:13;;;;;;;1.10;1.00;;;27.70;49.80;;;;;;4993628;28;20445;-83
2021/04/24 12:44:41;;;;;;;1.17;1.00;;;27.80;49.80;;;;;;4993581;28;20625;-83
2021/04/24 12:47:08;;;;;;;1.30;0.90;;;27.70;49.80;;;;;;4993609;28;20440;-83
2021/04/24 12:49:41;;;;;;;1.03;0.93;;;27.80;49.70;;;;;;4993351;28;21083;-82
2021/04/24 12:52:09;;;;;;;1.20;1.00;;;28.00;49.70;;;;;;4993607;28;20451;-82
2021/04/24 12:54:35;;;;;;;1.07;0.90;;;27.90;49.70;;;;;;4993644;28;20486;-83
2021/04/24 12:57:18;;;;;;;1.07;0.97;;;27.80;49.70;;;;;;4993556;28;20442;-82